Time;durP1;ratioP1;P1;durP2;ratioP2;P2;SDS_P1;SDS_P2;PMS_P1;PMS_P2;Temp;Humidity;BMP_temperature;BMP_pressure;BME280_temperature;BME280_humidity;BME280_pressure;Samples;Min_cycle;Max_cycle;Signal;HPM_P1;HPM_P2
2022/08/05 00:02:13;;;;;;;3.05;2.45;;;;;;;-145.69;80.12;70359.84;5033558;28;20200;-80
2022/08/05 00:04:39;;;;;;;3.97;2.45;;;;;;;-145.69;80.05;70387.69;5051263;28;20195;-80
2022/08/05 00:07:06;;;;;;;3.85;2.20;;;;;;;-145.69;79.42;70403.59;5053769;28;20203;-80
2022/08/05 00:09:32;;;;;;;3.90;2.22;;;;;;;-145.69;74.76;70371.78;5053909;28;20261;-80
2022/08/05 00:12:00;;;;;;;2.83;2.10;;;;;;;-145.69;76.07;70369.78;5053506;28;20646;-79
2022/08/05 00:14:26;;;;;;;3.55;2.30;;;;;;;-145.69;73.40;70359.84;5052368;28;20199;-79
2022/08/05 00:16:52;;;;;;;4.18;2.30;;;;;;;-145.69;71.30;70335.97;5052851;28;20195;-79
2022/08/05 00:19:19;;;;;;;4.70;2.42;;;;;;;-145.69;71.18;70314.09;5053359;28;20234;-79
2022/08/05 00:21:46;;;;;;;4.35;2.00;;;;;;;-145.69;70.19;70308.13;5053402;28;20205;-80
2022/08/05 00:24:12;;;;;;;9.00;2.13;;;;;;;-145.69;70.88;70320.06;5053432;28;20203;-79
2022/08/05 00:26:39;;;;;;;6.68;2.05;;;;;;;-145.69;77.45;70343.94;5048334;28;20595;-79
2022/08/05 00:29:06;;;;;;;3.05;2.30;;;;;;;-145.69;81.03;70403.59;5033369;28;20598;-79
2022/08/05 00:31:33;;;;;;;5.82;2.20;;;;;;;-145.69;80.37;70429.47;5035315;28;20700;-80
2022/08/05 00:33:59;;;;;;;3.92;2.10;;;;;;;-145.69;81.84;70455.34;5033008;28;20250;-80
2022/08/05 00:36:26;;;;;;;5.70;2.25;;;;;;;-145.69;82.83;70481.19;5032986;28;20207;-80
2022/08/05 00:38:52;;;;;;;4.40;2.10;;;;;;;-145.69;84.02;70491.13;5033158;28;20279;-80
2022/08/05 00:41:28;;;;;;;4.30;2.28;;;;;;;-145.69;81.15;70483.19;5039409;28;20249;-80
2022/08/05 00:43:54;;;;;;;3.78;2.30;;;;;;;-145.69;78.03;70459.31;5053049;28;20207;-79
2022/08/05 00:46:22;;;;;;;7.05;2.58;;;;;;;-145.69;77.06;70459.31;5053074;28;20198;-79
2022/08/05 00:48:48;;;;;;;5.05;2.30;;;;;;;-145.69;78.38;70419.53;5052991;28;20242;-79
2022/08/05 00:51:15;;;;;;;5.80;2.70;;;;;;;-145.69;81.13;70425.50;5034955;28;20286;-79
2022/08/05 00:53:42;;;;;;;3.13;2.33;;;;;;;-145.69;75.36;70427.47;5045200;28;20195;-79
2022/08/05 00:56:08;;;;;;;8.30;2.63;;;;;;;-145.69;70.18;70395.66;5032889;28;20200;-79
2022/08/05 00:58:34;;;;;;;3.00;2.50;;;;;;;-145.69;76.87;70401.63;5032813;28;20224;-79
2022/08/05 01:01:01;;;;;;;9.25;2.65;;;;;;;-145.69;80.40;70431.47;5033053;28;20200;-80
2022/08/05 01:03:29;;;;;;;5.35;2.38;;;;;;;-145.69;72.74;70421.50;5032957;28;20207;-79
2022/08/05 01:05:55;;;;;;;2.53;2.05;;;;;;;-145.69;65.68;70363.81;5042544;28;20192;-79
2022/08/05 01:08:22;;;;;;;4.95;2.08;;;;;;;-145.69;63.89;70335.97;5052880;28;20203;-79
2022/08/05 01:10:54;;;;;;;5.97;2.38;;;;;;;-145.69;63.61;70304.13;5050925;28;20253;-79
2022/08/05 01:13:24;;;;;;;4.05;2.20;;;;;;;-145.69;67.72;70304.13;5052965;28;20269;-80
2022/08/05 01:15:58;;;;;;;6.65;2.10;;;;;;;-145.69;68.63;70322.03;5052738;28;20207;-79
2022/08/05 01:18:29;;;;;;;7.45;2.30;;;;;;;-145.69;76.81;70349.91;5052663;28;20270;-82
2022/08/05 01:21:07;;;;;;;3.55;2.25;;;;;;;-145.69;80.20;70385.69;5051091;28;20199;-80
2022/08/05 01:23:48;;;;;;;3.92;2.45;;;;;;;-145.69;82.38;70427.47;5052554;28;20203;-79
2022/08/05 01:26:36;;;;;;;3.75;2.38;;;;;;;-145.69;82.43;70465.28;5052624;28;20207;-80
2022/08/05 01:29:08;;;;;;;3.30;2.20;;;;;;;-145.69;83.70;70483.19;5052651;28;20211;-81
2022/08/05 01:31:40;;;;;;;4.03;2.58;;;;;;;-145.69;85.56;70471.25;5032249;28;20434;-81
2022/08/05 01:34:10;;;;;;;3.05;2.35;;;;;;;-145.69;83.48;70471.25;5032775;28;20207;-80
2022/08/05 01:36:43;;;;;;;2.55;2.10;;;;;;;-145.69;82.50;70495.13;5033806;28;20246;-81
2022/08/05 01:39:11;;;;;;;2.97;1.88;;;;;;;-145.69;77.80;70495.13;5032837;28;20326;-81
2022/08/05 01:41:38;;;;;;;2.70;1.83;;;;;;;-145.69;75.14;70479.19;5033256;28;20254;-80
2022/08/05 01:44:07;;;;;;;5.32;2.22;;;;;;;-145.69;69.82;70451.34;5052275;28;20199;-80
2022/08/05 01:46:35;;;;;;;3.88;2.13;;;;;;;-145.69;68.04;70415.53;5052685;28;20264;-80
2022/08/05 01:49:03;;;;;;;2.17;1.98;;;;;;;-145.69;66.85;70397.63;5056441;28;20250;-80
2022/08/05 01:51:32;;;;;;;4.05;2.28;;;;;;;-145.69;68.42;70377.75;5056099;28;20693;-81
2022/08/05 01:54:00;;;;;;;4.63;2.40;;;;;;;-145.69;74.01;70383.72;5054508;28;20196;-80
2022/08/05 01:56:30;;;;;;;5.43;1.95;;;;;;;-145.69;70.21;70403.59;5056050;28;20225;-81
2022/08/05 01:58:58;;;;;;;2.58;1.80;;;;;;;-145.69;68.80;70399.63;5055789;28;20321;-80
2022/08/05 02:01:28;;;;;;;3.75;1.90;;;;;;;-145.69;65.06;70385.69;5055980;28;20561;-80
2022/08/05 02:03:56;;;;;;;3.63;2.15;;;;;;;-145.69;63.64;70343.94;5056117;28;20200;-80
2022/08/05 02:06:23;;;;;;;3.33;1.70;;;;;;;-145.69;72.98;70349.91;5055359;28;20195;-80
2022/08/05 02:08:50;;;;;;;3.50;1.77;;;;;;;-145.69;77.76;70379.72;5054161;28;20202;-80
2022/08/05 02:11:17;;;;;;;4.90;2.08;;;;;;;-145.69;67.42;70371.78;5055658;28;20199;-80
2022/08/05 02:13:48;;;;;;;2.85;2.00;;;;;;;-145.69;64.09;70359.84;5055947;28;20203;-80
2022/08/05 02:16:20;;;;;;;3.90;2.30;;;;;;;-145.69;72.46;70375.75;5055709;28;20653;-80
2022/08/05 02:18:53;;;;;;;5.35;2.10;;;;;;;-145.69;75.56;70401.63;5053953;28;20223;-80
2022/08/05 02:21:24;;;;;;;3.05;2.30;;;;;;;-145.69;75.65;70417.53;5055664;28;20199;-80
2022/08/05 02:23:54;;;;;;;2.08;1.85;;;;;;;-145.69;77.13;70433.44;5055483;28;20261;-80
2022/08/05 02:26:25;;;;;;;2.60;2.17;;;;;;;-145.69;77.36;70429.47;5055944;28;20207;-80
2022/08/05 02:28:54;;;;;;;5.50;2.10;;;;;;;-145.69;77.31;70447.38;5055702;28;20234;-80
2022/08/05 02:31:23;;;;;;;3.55;1.90;;;;;;;-145.69;77.17;70455.34;5036848;28;20193;-80
2022/08/05 02:33:56;;;;;;;2.50;1.90;;;;;;;-145.69;79.25;70477.22;5035451;28;20204;-80
2022/08/05 02:36:24;;;;;;;4.13;2.10;;;;;;;-145.69;76.80;70491.13;5035512;28;20258;-80
2022/08/05 02:38:54;;;;;;;3.58;2.13;;;;;;;-145.69;82.56;70499.09;5035557;28;20335;-80
2022/08/05 02:41:22;;;;;;;3.08;1.95;;;;;;;-145.69;82.92;70522.97;5036734;28;20203;-80
2022/08/05 02:43:50;;;;;;;3.75;2.35;;;;;;;-145.69;81.79;70544.84;5043852;28;20266;-80
2022/08/05 02:46:19;;;;;;;2.80;2.30;;;;;;;-145.69;80.06;70540.88;5050918;28;20225;-80
2022/08/05 02:48:47;;;;;;;7.28;2.13;;;;;;;-145.69;78.73;70542.88;5054669;28;20709;-80
2022/08/05 02:51:17;;;;;;;2.35;2.00;;;;;;;-145.69;76.93;70542.88;5055135;28;20203;-80
2022/08/05 02:53:45;;;;;;;3.03;2.17;;;;;;;-145.69;75.45;70532.91;5050229;28;20192;-79
2022/08/05 02:56:13;;;;;;;5.68;2.17;;;;;;;-145.69;75.31;70540.88;5035105;28;20200;-80
2022/08/05 02:58:41;;;;;;;3.90;1.92;;;;;;;-145.69;74.29;70540.88;5034461;28;20196;-81
2022/08/05 03:01:10;;;;;;;3.30;2.17;;;;;;;-145.69;74.78;70536.91;5034981;28;20547;-81
2022/08/05 03:03:40;;;;;;;5.10;2.30;;;;;;;-145.69;75.99;70538.88;5034835;28;20200;-80
2022/08/05 03:06:07;;;;;;;4.03;2.50;;;;;;;-145.69;76.46;70540.88;5035772;28;20201;-80
2022/08/05 03:08:36;;;;;;;3.60;2.17;;;;;;;-145.69;72.36;70526.94;5034920;28;20204;-80
2022/08/05 03:11:02;;;;;;;2.83;1.95;;;;;;;-145.69;75.03;70538.88;5034684;28;20204;-80
2022/08/05 03:13:29;;;;;;;3.45;2.00;;;;;;;-145.69;76.90;70562.75;5034759;28;20274;-80
2022/08/05 03:15:55;;;;;;;3.20;2.20;;;;;;;-145.69;73.89;70558.78;5034471;28;20613;-80
2022/08/05 03:18:21;;;;;;;3.35;2.50;;;;;;;-145.69;73.99;70556.78;5046442;28;20206;-81
2022/08/05 03:20:48;;;;;;;3.03;2.05;;;;;;;-145.69;78.45;70566.75;5054555;28;20227;-82
2022/08/05 03:23:14;;;;;;;5.43;2.13;;;;;;;-145.69;81.89;70590.63;5054664;28;20593;-81
2022/08/05 03:25:42;;;;;;;4.85;2.40;;;;;;;-145.69;80.47;70588.63;5054386;28;20253;-81
2022/08/05 03:28:10;;;;;;;4.05;2.63;;;;;;;-145.69;78.67;70600.56;5054320;28;20229;-80
2022/08/05 03:30:37;;;;;;;2.47;2.28;;;;;;;-145.69;78.12;70608.53;5044541;28;20212;-80
2022/08/05 03:33:06;;;;;;;3.22;2.10;;;;;;;-145.69;76.73;70606.53;5034342;28;20540;-80
2022/08/05 03:35:33;;;;;;;5.63;2.25;;;;;;;-145.69;81.45;70578.69;5034326;28;20204;-81
2022/08/05 03:38:00;;;;;;;2.75;2.00;;;;;;;-145.69;83.85;70596.59;5037076;28;20219;-80
2022/08/05 03:40:27;;;;;;;5.60;2.22;;;;;;;-145.69;82.52;70608.53;5044856;28;20267;-80
2022/08/05 03:42:54;;;;;;;3.45;2.30;;;;;;;-145.69;81.60;70620.44;5033951;28;20207;-80
2022/08/05 03:45:21;;;;;;;2.80;2.08;;;;;;;-145.69;78.56;70618.47;5034233;28;20196;-80
2022/08/05 03:47:48;;;;;;;6.47;2.25;;;;;;;-145.69;75.97;70598.56;5036030;28;20235;-80
2022/08/05 03:50:14;;;;;;;6.45;2.10;;;;;;;-145.69;82.08;70582.66;5053998;28;20199;-80
2022/08/05 03:52:48;;;;;;;3.05;2.45;;;;;;;-145.69;82.68;70596.59;5053993;28;20268;-80
2022/08/05 03:55:20;;;;;;;4.13;2.22;;;;;;;-145.69;82.35;70612.50;5053852;28;20199;-81
2022/08/05 03:57:49;;;;;;;3.67;2.30;;;;;;;-145.69;82.99;70622.44;5053810;28;20649;-80
2022/08/05 04:00:17;;;;;;;3.22;2.40;;;;;;;-145.69;83.94;70642.34;5050050;28;20224;-81
2022/08/05 04:02:49;;;;;;;2.10;1.90;;;;;;;-145.69;84.91;70672.19;5033653;28;20208;-80
2022/08/05 04:05:17;;;;;;;4.95;2.40;;;;;;;-145.69;88.34;70680.13;5033710;28;20262;-80
2022/08/05 04:07:44;;;;;;;4.43;2.20;;;;;;;-145.69;88.11;70690.09;5033597;28;20327;-80
2022/08/05 04:10:11;;;;;;;3.50;2.25;;;;;;;-145.69;88.50;70698.03;5032797;28;20239;-80
2022/08/05 04:12:37;;;;;;;3.58;2.30;;;;;;;-145.69;86.69;70698.03;5034565;28;20237;-80
2022/08/05 04:15:05;;;;;;;3.65;2.45;;;;;;;-145.69;81.51;70670.19;5033815;28;20199;-81
2022/08/05 04:17:33;;;;;;;3.85;2.20;;;;;;;-145.69;88.09;70662.22;5033535;28;20200;-80
2022/08/05 04:20:00;;;;;;;5.57;2.40;;;;;;;-145.69;83.93;70670.19;5033432;28;20219;-80
2022/08/05 04:22:26;;;;;;;5.57;2.30;;;;;;;-145.69;80.17;70652.28;5033204;28;20609;-79
2022/08/05 04:24:52;;;;;;;6.25;2.40;;;;;;;-145.69;80.54;70656.25;5040161;28;20286;-79
2022/08/05 04:27:19;;;;;;;4.25;2.13;;;;;;;-145.69;79.55;70664.22;5053503;28;20207;-80
2022/08/05 04:29:45;;;;;;;3.33;2.45;;;;;;;-145.69;80.53;70674.16;5053280;28;20249;-80
2022/08/05 04:32:12;;;;;;;4.70;2.40;;;;;;;-145.69;86.83;70684.13;5053264;28;20273;-79
2022/08/05 04:34:40;;;;;;;3.58;2.25;;;;;;;-145.69;87.07;70702.03;5053182;28;20196;-79
2022/08/05 04:37:06;;;;;;;3.58;2.25;;;;;;;-145.69;87.17;70711.97;5044531;28;20192;-79
2022/08/05 04:39:33;;;;;;;5.38;2.28;;;;;;;-145.69;87.05;70711.97;5033314;28;20227;-79
2022/08/05 04:41:59;;;;;;;7.20;2.25;;;;;;;-145.69;85.88;70715.94;5033308;28;20204;-80
2022/08/05 04:44:26;;;;;;;4.65;2.40;;;;;;;-145.69;83.78;70692.06;5033282;28;20632;-80
2022/08/05 04:46:52;;;;;;;4.28;2.92;;;;;;;-145.69;83.75;70680.13;5033032;28;20571;-79
2022/08/05 04:49:19;;;;;;;3.60;2.58;;;;;;;-145.69;84.19;70670.19;5042125;28;20203;-80
2022/08/05 04:51:46;;;;;;;4.20;2.33;;;;;;;-145.69;82.67;70670.19;5039231;28;20204;-80
2022/08/05 04:54:13;;;;;;;5.03;2.28;;;;;;;-145.69;86.66;70690.09;5032970;28;20204;-80
2022/08/05 04:56:40;;;;;;;3.65;2.30;;;;;;;-145.69;86.18;70713.97;5033086;28;20291;-80
2022/08/05 04:59:07;;;;;;;4.97;2.55;;;;;;;-145.69;88.43;70741.81;5032879;28;20204;-80
2022/08/05 05:01:33;;;;;;;4.05;2.35;;;;;;;-145.69;84.79;70741.81;5040894;28;20192;-81
2022/08/05 05:03:59;;;;;;;8.18;2.65;;;;;;;-145.69;83.58;70729.88;5052730;28;20700;-80
2022/08/05 05:06:26;;;;;;;6.28;2.42;;;;;;;-145.69;83.36;70719.94;5052585;28;20199;-80
2022/08/05 05:08:54;;;;;;;4.03;2.28;;;;;;;-145.69;82.35;70702.03;5052920;28;20246;-80
2022/08/05 05:11:21;;;;;;;3.53;2.17;;;;;;;-145.69;83.17;70698.03;5052815;28;20203;-80
2022/08/05 05:13:47;;;;;;;2.45;2.22;;;;;;;-145.69;84.55;70704.00;5038533;28;20224;-80
2022/08/05 05:16:14;;;;;;;3.75;2.33;;;;;;;-145.69;84.12;70694.06;5032815;28;20256;-80
2022/08/05 05:18:42;;;;;;;2.33;2.13;;;;;;;-145.69;85.73;70686.09;5032736;28;20295;-80
2022/08/05 05:21:09;;;;;;;4.90;2.40;;;;;;;-145.69;87.92;70678.16;5034064;28;20322;-81
2022/08/05 05:23:35;;;;;;;3.03;2.28;;;;;;;-145.69;80.55;70658.25;5037004;28;20223;-80
2022/08/05 05:26:03;;;;;;;2.70;2.20;;;;;;;-145.69;81.20;70628.41;5037404;28;20196;-79
2022/08/05 05:28:29;;;;;;;4.38;2.53;;;;;;;-145.69;79.93;70602.56;5035526;28;20204;-80
2022/08/05 05:30:56;;;;;;;7.72;2.80;;;;;;;-145.69;78.63;70594.59;5055165;28;20195;-80
2022/08/05 05:33:22;;;;;;;3.17;2.45;;;;;;;-145.69;79.89;70586.63;5057005;28;20203;-80
2022/08/05 05:35:49;;;;;;;3.83;2.25;;;;;;;-145.69;75.69;70574.69;5056663;28;20199;-80
2022/08/05 05:38:16;;;;;;;8.77;2.50;;;;;;;-145.69;70.90;70542.88;5040382;28;20258;-79
2022/08/05 05:40:43;;;;;;;7.05;2.42;;;;;;;-145.69;66.88;70511.03;5050767;28;20276;-80
2022/08/05 05:43:10;;;;;;;9.60;2.50;;;;;;;-145.69;67.09;70491.13;5056372;28;20219;-80
2022/08/05 05:45:37;;;;;;;4.72;2.40;;;;;;;-145.69;67.25;70459.31;5056003;28;20195;-80
2022/08/05 05:48:05;;;;;;;3.88;2.92;;;;;;;-145.69;65.32;70437.44;5048498;28;20282;-79
2022/08/05 05:50:33;;;;;;;5.38;2.33;;;;;;;-145.69;63.97;70419.53;5036037;28;20662;-79
2022/08/05 05:52:59;;;;;;;7.18;2.80;;;;;;;-145.69;66.76;70417.53;5036138;28;20662;-79
2022/08/05 05:55:25;;;;;;;3.90;2.17;;;;;;;-145.69;65.24;70391.66;5036213;28;20610;-79
2022/08/05 05:57:52;;;;;;;3.10;2.20;;;;;;;-145.69;64.47;70375.75;5041404;28;20191;-79
2022/08/05 06:00:21;;;;;;;6.18;2.67;;;;;;;-145.69;69.69;70369.78;5055950;28;20231;-80
2022/08/05 06:02:47;;;;;;;5.40;2.30;;;;;;;-145.69;69.00;70332.00;5050483;28;20235;-80
2022/08/05 06:05:17;;;;;;;9.30;2.70;;;;;;;-145.69;69.18;70306.13;5036144;28;20258;-82
2022/08/05 06:07:44;;;;;;;6.43;3.10;;;;;;;-145.69;67.65;70280.28;5036014;28;20204;-81
2022/08/05 06:10:11;;;;;;;7.75;2.90;;;;;;;-145.69;67.06;70276.28;5037083;28;20235;-80
2022/08/05 06:12:38;;;;;;;11.10;2.70;;;;;;;-145.69;67.56;70262.38;5036057;28;20207;-81
2022/08/05 06:15:07;;;;;;;7.10;2.70;;;;;;;-145.69;67.33;70248.44;5035643;28;20621;-80
2022/08/05 06:17:35;;;;;;;8.57;2.75;;;;;;;-145.69;64.67;70232.53;5036102;28;20195;-79
2022/08/05 06:20:01;;;;;;;4.72;2.42;;;;;;;-145.69;64.67;70216.63;5035915;28;20319;-79
2022/08/05 06:22:29;;;;;;;5.65;2.60;;;;;;;-145.69;63.61;70216.63;5046291;28;20206;-83
2022/08/05 06:24:56;;;;;;;5.68;2.28;;;;;;;-145.69;63.36;70194.72;5055470;28;20219;-81
2022/08/05 06:27:22;;;;;;;4.65;2.42;;;;;;;-145.69;59.96;70170.84;5055480;28;20204;-80
2022/08/05 06:29:49;;;;;;;6.28;2.33;;;;;;;-145.69;60.74;70174.84;5055390;28;20265;-79
2022/08/05 06:32:16;;;;;;;6.20;2.70;;;;;;;-145.69;59.99;70166.88;5054827;28;20257;-79
2022/08/05 06:34:43;;;;;;;5.40;2.80;;;;;;;-145.69;60.09;70174.84;5044067;28;20196;-79
2022/08/05 06:37:10;;;;;;;3.78;2.30;;;;;;;-145.69;59.44;70176.81;5035464;28;20609;-76
2022/08/05 06:39:38;;;;;;;10.85;2.47;;;;;;;-145.69;60.71;70174.84;5035285;28;20558;-77
2022/08/05 06:42:05;;;;;;;6.43;2.22;;;;;;;-145.69;60.33;70184.78;5034836;28;20437;-79
2022/08/05 06:44:32;;;;;;;7.40;2.75;;;;;;;-145.69;59.52;70174.84;5035532;28;20266;-78
2022/08/05 06:46:58;;;;;;;4.72;2.42;;;;;;;-145.69;58.46;70172.84;5045601;28;20285;-78
2022/08/05 06:49:25;;;;;;;14.15;3.22;;;;;;;-145.69;59.24;70180.81;5055181;28;20206;-78
2022/08/05 06:51:53;;;;;;;4.88;2.40;;;;;;;-145.69;58.97;70174.84;5055096;28;20203;-78
2022/08/05 06:54:19;;;;;;;5.60;2.47;;;;;;;-145.69;60.16;70148.97;5054884;28;20203;-78
2022/08/05 06:56:45;;;;;;;5.05;2.67;;;;;;;-145.69;58.24;70141.03;5055141;28;20249;-78
2022/08/05 06:59:13;;;;;;;11.38;2.75;;;;;;;-145.69;58.75;70123.13;5043611;28;20196;-78
2022/08/05 07:01:40;;;;;;;6.70;2.70;;;;;;;-145.69;58.76;70117.16;5035046;28;20236;-78
2022/08/05 07:04:06;;;;;;;5.78;2.55;;;;;;;-145.69;58.03;70129.09;5034976;28;20199;-75
2022/08/05 07:06:32;;;;;;;7.22;2.80;;;;;;;-145.69;59.94;70178.81;5034842;28;20196;-77
2022/08/05 07:09:01;;;;;;;6.32;2.50;;;;;;;-145.69;62.01;70210.66;5034685;28;20204;-80
2022/08/05 07:11:29;;;;;;;6.70;2.83;;;;;;;-145.69;61.15;70202.69;5047716;28;20208;-76
2022/08/05 07:19:59;;;;;;;6.25;2.22;;;;;;;-145.69;60.19;70133.06;4980422;28;20270;-76
2022/08/05 07:22:26;;;;;;;6.45;2.55;;;;;;;-145.69;59.42;70143.00;4987345;28;20194;-76
2022/08/05 07:24:54;;;;;;;3.88;2.35;;;;;;;-145.69;59.69;70152.97;4995259;28;20205;-77
2022/08/05 07:27:20;;;;;;;6.80;2.90;;;;;;;-145.69;59.69;70148.97;4995129;28;20193;-75
2022/08/05 07:29:47;;;;;;;3.85;2.30;;;;;;;-145.69;57.42;70137.03;4994810;28;20208;-77
2022/08/05 07:32:13;;;;;;;3.85;2.10;;;;;;;-145.69;56.11;70131.06;4995200;28;20209;-78
2022/08/05 07:34:39;;;;;;;8.85;2.22;;;;;;;-145.69;56.12;70111.19;4994876;28;20208;-77
2022/08/05 07:37:06;;;;;;;5.95;2.15;;;;;;;-145.69;55.72;70109.19;4995089;28;20204;-79
2022/08/05 07:39:33;;;;;;;6.97;2.17;;;;;;;-145.69;56.36;70097.25;4994454;28;20197;-77
2022/08/05 07:42:01;;;;;;;5.63;2.17;;;;;;;-145.69;54.05;70055.47;4994609;28;20276;-77
2022/08/05 07:44:27;;;;;;;4.93;2.05;;;;;;;-145.69;53.31;70065.44;4994773;28;20255;-77
2022/08/05 07:46:53;;;;;;;4.63;1.55;;;;;;;-145.69;53.27;70069.41;4994807;28;20197;-76
2022/08/05 07:49:20;;;;;;;5.93;1.98;;;;;;;-145.69;52.78;70069.41;4994884;28;20602;-76
2022/08/05 07:51:47;;;;;;;6.22;2.05;;;;;;;-145.69;52.53;70081.34;4994471;28;20197;-77
2022/08/05 07:54:13;;;;;;;5.07;2.15;;;;;;;-145.69;52.73;70071.41;4994521;28;20210;-76
2022/08/05 07:56:39;;;;;;;5.05;1.90;;;;;;;-145.69;52.63;70049.50;4994369;28;20567;-75
2022/08/05 07:59:07;;;;;;;8.43;2.17;;;;;;;-145.69;54.16;70053.50;4994327;28;20536;-75
2022/08/05 08:01:34;;;;;;;10.52;2.00;;;;;;;-145.69;52.29;70085.31;4994619;28;20237;-77
2022/08/05 08:04:00;;;;;;;4.03;1.85;;;;;;;-145.69;51.86;70089.31;4993677;28;20448;-77
2022/08/05 08:06:26;;;;;;;4.45;1.75;;;;;;;-145.69;52.09;70083.34;4993895;28;20205;-76
2022/08/05 08:08:53;;;;;;;3.08;1.90;;;;;;;-145.69;50.81;70077.38;4994140;28;20205;-76
2022/08/05 08:11:19;;;;;;;5.72;1.42;;;;;;;-145.69;51.64;70077.38;4994756;28;20215;-75
2022/08/05 08:13:46;;;;;;;8.88;2.05;;;;;;;-145.69;53.02;70083.34;4994235;28;20208;-75
2022/08/05 08:16:14;;;;;;;7.50;2.22;;;;;;;-145.69;51.67;70053.50;4994364;28;20209;-75
2022/08/05 08:18:40;;;;;;;3.45;1.58;;;;;;;-145.69;50.12;70041.56;5005010;28;20232;-75
2022/08/05 08:21:07;;;;;;;6.43;1.55;;;;;;;-145.69;51.44;70051.50;5013668;28;20714;-75
2022/08/05 08:23:34;;;;;;;3.15;1.35;;;;;;;-145.69;50.41;70083.34;5013929;28;20204;-79
2022/08/05 08:26:00;;;;;;;4.90;2.05;;;;;;;-145.69;51.81;70085.31;5013640;28;20296;-80
2022/08/05 08:28:27;;;;;;;3.47;1.80;;;;;;;-145.69;50.05;70097.25;5013549;28;20204;-81
2022/08/05 08:30:53;;;;;;;4.70;2.13;;;;;;;-145.69;51.55;70085.31;5013090;28;20204;-78
2022/08/05 08:33:21;;;;;;;4.20;1.60;;;;;;;-145.69;50.87;70059.47;5013337;28;20208;-77
2022/08/05 08:35:48;;;;;;;1.75;1.55;;;;;;;-145.69;49.37;69997.78;5013549;28;20296;-78
2022/08/05 08:38:15;;;;;;;3.85;1.77;;;;;;;-145.69;48.48;69973.94;5013763;28;20204;-80
2022/08/05 08:40:42;;;;;;;4.28;1.60;;;;;;;-145.69;46.80;69993.81;5013313;28;20789;-82
2022/08/05 08:43:11;;;;;;;2.78;1.70;;;;;;;-145.69;46.36;69973.94;5013100;28;20614;-80
2022/08/05 08:45:39;;;;;;;2.53;1.60;;;;;;;-145.69;46.35;69962.00;5013413;28;20618;-79
2022/08/05 08:48:06;;;;;;;3.15;1.30;;;;;;;-145.69;46.43;69918.22;5013385;28;20655;-78
2022/08/05 08:50:36;;;;;;;2.25;1.50;;;;;;;-145.69;48.77;69977.91;5013551;28;20208;-79
2022/08/05 08:53:05;;;;;;;3.20;1.58;;;;;;;-145.69;47.68;69969.94;5013344;28;20251;-79
2022/08/05 08:55:33;;;;;;;4.53;1.40;;;;;;;-145.69;49.18;69956.03;5012337;28;20201;-79
2022/08/05 08:58:00;;;;;;;3.78;1.45;;;;;;;-145.69;48.60;69950.06;5013326;28;20197;-79
2022/08/05 09:00:27;;;;;;;2.47;1.60;;;;;;;-145.69;48.65;69900.34;5013259;28;20205;-77
2022/08/05 09:02:54;;;;;;;4.47;1.50;;;;;;;-145.69;47.69;69864.53;5013058;28;20651;-77
2022/08/05 09:05:20;;;;;;;3.25;1.58;;;;;;;-145.69;45.24;69816.78;5012825;28;20228;-80
2022/08/05 09:07:50;;;;;;;2.92;1.50;;;;;;;-145.69;44.17;69786.94;5013071;28;20208;-79
2022/08/05 09:10:16;;;;;;;1.75;1.30;;;;;;;-145.69;43.70;69782.97;5013070;28;20650;-78
2022/08/05 09:12:43;;;;;;;2.13;1.30;;;;;;;-145.69;43.23;69784.97;5013226;28;20209;-79
2022/08/05 09:15:11;;;;;;;1.88;1.20;;;;;;;-145.69;44.18;69832.69;5013407;28;20200;-79
2022/08/05 09:17:37;;;;;;;3.47;1.30;;;;;;;-145.69;44.50;69824.75;5013034;28;20251;-77
2022/08/05 09:20:05;;;;;;;6.90;1.67;;;;;;;-145.69;44.93;69866.50;5012897;28;20201;-78
2022/08/05 09:23:09;;;;;;;2.40;1.50;;;;;;;-145.69;45.24;69910.28;5012846;28;20592;-76
2022/08/05 09:25:37;;;;;;;1.20;1.10;;;;;;;-145.69;46.79;69942.09;5013011;28;20677;-79
2022/08/05 09:28:13;;;;;;;2.47;1.50;;;;;;;-145.69;46.18;69954.03;5013053;28;20554;-77
2022/08/05 09:30:43;;;;;;;1.90;1.17;;;;;;;-145.69;47.36;69890.38;5012616;28;20205;-77
2022/08/05 09:33:10;;;;;;;1.80;1.10;;;;;;;-145.69;45.80;69872.47;5012836;28;20248;-76
2022/08/05 09:35:36;;;;;;;3.00;1.38;;;;;;;-145.69;45.13;69790.94;5013048;28;20201;-79
2022/08/05 09:38:07;;;;;;;2.22;1.25;;;;;;;-145.69;43.71;69755.13;5012888;28;20710;-77
2022/08/05 09:40:36;;;;;;;1.83;1.45;;;;;;;-145.69;42.24;69711.38;5012716;28;20671;-79
2022/08/05 09:43:05;;;;;;;2.60;1.30;;;;;;;-145.69;42.01;69667.59;5012416;28;20227;-76
2022/08/05 09:45:37;;;;;;;3.63;1.38;;;;;;;-145.69;38.54;69657.66;5012670;28;20287;-77
2022/08/05 09:48:18;;;;;;;2.40;1.65;;;;;;;-145.69;40.98;69699.44;5012917;28;20200;-75
2022/08/05 09:50:49;;;;;;;2.35;1.33;;;;;;;-145.69;41.61;69727.28;5012305;28;20446;-77
2022/08/05 09:53:17;;;;;;;1.77;1.13;;;;;;;-145.69;40.27;69703.41;5012847;28;20251;-78
2022/08/05 09:55:44;;;;;;;1.67;1.15;;;;;;;-145.69;40.26;69729.28;5012222;28;20208;-78
2022/08/05 09:58:11;;;;;;;3.88;1.48;;;;;;;-145.69;40.25;69729.28;5012855;28;20208;-78
2022/08/05 10:00:39;;;;;;;3.35;1.13;;;;;;;-145.69;40.21;69719.31;5012773;28;20208;-79
2022/08/05 10:03:09;;;;;;;2.22;1.23;;;;;;;-145.69;40.89;69711.38;5012497;28;20216;-78
2022/08/05 10:05:37;;;;;;;1.85;1.25;;;;;;;-145.69;41.08;69685.50;5012911;28;20204;-79
2022/08/05 10:08:06;;;;;;;2.88;1.30;;;;;;;-145.69;40.16;69643.75;5013635;28;20204;-77
2022/08/05 10:10:47;;;;;;;1.77;1.30;;;;;;;-145.69;41.64;69643.75;5016126;28;20212;-80
2022/08/05 10:13:26;;;;;;;3.63;1.10;;;;;;;-145.69;43.31;69667.59;5015386;28;20663;-78
2022/08/05 10:15:54;;;;;;;6.43;1.50;;;;;;;-145.69;42.41;69637.78;5016047;28;20232;-76
2022/08/05 10:18:22;;;;;;;5.78;1.27;;;;;;;-145.69;40.19;69633.78;5015606;28;20614;-78
2022/08/05 10:20:50;;;;;;;3.85;1.33;;;;;;;-145.69;40.31;69649.72;5015839;28;20197;-78
2022/08/05 10:23:19;;;;;;;2.33;1.60;;;;;;;-145.69;40.14;69651.69;5016057;28;20205;-79
2022/08/05 10:25:47;;;;;;;1.58;1.25;;;;;;;-145.69;39.40;69635.78;5015713;28;20594;-80
2022/08/05 10:28:15;;;;;;;3.17;1.58;;;;;;;-145.69;39.66;69601.97;5015944;28;20227;-77
2022/08/05 10:30:42;;;;;;;2.47;1.50;;;;;;;-145.69;39.96;69607.94;5015775;28;20670;-78
2022/08/05 10:33:08;;;;;;;2.53;1.55;;;;;;;-145.69;40.24;69605.94;5015845;28;20205;-77
2022/08/05 10:35:35;;;;;;;1.90;1.30;;;;;;;-145.69;40.88;69617.88;5015653;28;20296;-79
2022/08/05 10:38:03;;;;;;;1.55;1.30;;;;;;;-145.69;39.95;69609.94;5015568;28;20193;-79
2022/08/05 10:40:35;;;;;;;1.85;1.33;;;;;;;-145.69;41.47;69635.78;5015605;28;20200;-79
2022/08/05 10:43:11;;;;;;;3.10;1.40;;;;;;;-145.69;41.98;69665.63;5015492;28;20232;-80
2022/08/05 10:45:38;;;;;;;1.45;1.30;;;;;;;-145.69;42.77;69663.63;5013631;28;20200;-77
2022/08/05 10:48:28;;;;;;;3.97;1.50;;;;;;;-145.69;41.70;69635.78;4995918;28;20644;-78
2022/08/05 10:51:00;;;;;;;3.65;1.58;;;;;;;-145.69;42.29;69643.75;4993384;28;20213;-78
2022/08/05 10:53:34;;;;;;;3.75;1.95;;;;;;;-145.69;41.95;69635.78;4995493;28;20202;-77
2022/08/05 10:56:06;;;;;;;2.15;1.63;;;;;;;-145.69;41.88;69643.75;5012335;28;20276;-78
2022/08/05 10:58:34;;;;;;;4.47;1.85;;;;;;;-145.69;41.34;69607.94;5015300;28;20212;-79
2022/08/05 11:01:05;;;;;;;3.10;1.83;;;;;;;-145.69;43.13;69564.19;5015222;28;20228;-78
2022/08/05 11:03:32;;;;;;;3.30;1.70;;;;;;;-145.69;41.13;69572.13;5015201;28;20197;-78
2022/08/05 11:06:10;;;;;;;2.83;1.70;;;;;;;-145.69;40.94;69560.22;5015136;28;20204;-78
2022/08/05 11:08:37;;;;;;;4.43;1.63;;;;;;;-145.69;41.80;69552.25;5015151;28;20201;-78
2022/08/05 11:11:34;;;;;;;4.30;1.80;;;;;;;-145.69;40.95;69564.19;5014924;28;20211;-80
2022/08/05 11:14:03;;;;;;;2.90;2.08;;;;;;;-145.69;39.91;69566.16;5014831;28;20201;-80
2022/08/05 11:16:31;;;;;;;4.10;1.58;;;;;;;-145.69;40.70;69570.16;5015178;28;20316;-80
2022/08/05 11:19:26;;;;;;;3.70;1.80;;;;;;;-145.69;40.49;69536.34;5014246;28;20638;-79
2022/08/05 11:21:52;;;;;;;4.55;1.85;;;;;;;-145.69;41.82;69546.28;5014540;28;20713;-79
2022/08/05 11:24:20;;;;;;;3.13;1.80;;;;;;;-145.69;41.39;69524.41;5014855;28;20439;-79
2022/08/05 11:26:47;;;;;;;4.88;2.00;;;;;;;-145.69;39.14;69500.53;5014171;28;20211;-77
2022/08/05 11:29:36;;;;;;;4.22;1.75;;;;;;;-145.69;39.67;69482.63;5014653;28;20208;-80